sensor_id;sensor_type;location;lat;lon;timestamp;P1;durP1;ratioP1;P2;durP2;ratioP2
13250;SDS011;6692;50.710;7.180;2023-05-07T00:01:02;1999.90;;;999.90;;
13250;SDS011;6692;50.710;7.180;2023-05-07T00:03:03;1999.90;;;999.90;;
13250;SDS011;6692;50.710;7.180;2023-05-07T00:05:04;1999.90;;;999.90;;
13250;SDS011;6692;50.710;7.180;2023-05-07T00:07:06;1999.90;;;999.90;;
13250;SDS011;6692;50.710;7.180;2023-05-07T00:09:08;1999.90;;;999.90;;
13250;SDS011;6692;50.710;7.180;2023-05-07T00:11:08;1999.90;;;999.90;;
13250;SDS011;6692;50.710;7.180;2023-05-07T00:13:09;1999.90;;;999.90;;
13250;SDS011;6692;50.710;7.180;2023-05-07T00:15:10;1999.90;;;999.90;;
13250;SDS011;6692;50.710;7.180;2023-05-07T00:17:10;1999.90;;;999.90;;
13250;SDS011;6692;50.710;7.180;2023-05-07T00:19:11;1999.90;;;999.90;;
13250;SDS011;6692;50.710;7.180;2023-05-07T00:21:12;1999.90;;;999.90;;
13250;SDS011;6692;50.710;7.180;2023-05-07T00:23:14;1999.90;;;999.90;;
13250;SDS011;6692;50.710;7.180;2023-05-07T00:25:15;1999.90;;;999.90;;
13250;SDS011;6692;50.710;7.180;2023-05-07T00:27:15;1999.90;;;999.90;;
13250;SDS011;6692;50.710;7.180;2023-05-07T00:29:16;1999.90;;;999.90;;
13250;SDS011;6692;50.710;7.180;2023-05-07T00:31:17;1999.90;;;999.90;;
13250;SDS011;6692;50.710;7.180;2023-05-07T00:33:17;1999.90;;;999.90;;
13250;SDS011;6692;50.710;7.180;2023-05-07T00:35:18;1999.90;;;999.90;;
13250;SDS011;6692;50.710;7.180;2023-05-07T00:37:19;1999.90;;;999.90;;
13250;SDS011;6692;50.710;7.180;2023-05-07T00:39:19;1999.90;;;999.90;;
13250;SDS011;6692;50.710;7.180;2023-05-07T00:41:20;1999.90;;;999.90;;
13250;SDS011;6692;50.710;7.180;2023-05-07T00:43:22;1999.90;;;999.90;;
13250;SDS011;6692;50.710;7.180;2023-05-07T00:45:22;1999.90;;;999.90;;
13250;SDS011;6692;50.710;7.180;2023-05-07T00:47:24;1999.90;;;999.90;;
13250;SDS011;6692;50.710;7.180;2023-05-07T00:49:26;1999.90;;;999.90;;
13250;SDS011;6692;50.710;7.180;2023-05-07T00:51:26;1999.90;;;999.90;;
13250;SDS011;6692;50.710;7.180;2023-05-07T00:53:28;1999.90;;;999.90;;
13250;SDS011;6692;50.710;7.180;2023-05-07T00:55:28;1999.90;;;999.90;;
13250;SDS011;6692;50.710;7.180;2023-05-07T00:57:29;1999.90;;;999.90;;
13250;SDS011;6692;50.710;7.180;2023-05-07T00:59:30;1999.90;;;999.90;;
13250;SDS011;6692;50.710;7.180;2023-05-07T01:01:31;1999.90;;;999.90;;
13250;SDS011;6692;50.710;7.180;2023-05-07T01:03:31;1999.90;;;999.90;;
13250;SDS011;6692;50.710;7.180;2023-05-07T01:05:32;1999.90;;;999.90;;
13250;SDS011;6692;50.710;7.180;2023-05-07T01:07:33;1999.90;;;999.90;;
13250;SDS011;6692;50.710;7.180;2023-05-07T01:09:33;1999.90;;;999.90;;
13250;SDS011;6692;50.710;7.180;2023-05-07T01:11:34;1999.90;;;999.90;;
13250;SDS011;6692;50.710;7.180;2023-05-07T01:13:35;1999.90;;;999.90;;
13250;SDS011;6692;50.710;7.180;2023-05-07T01:15:36;1999.90;;;999.90;;
13250;SDS011;6692;50.710;7.180;2023-05-07T01:17:37;1999.90;;;999.90;;
13250;SDS011;6692;50.710;7.180;2023-05-07T01:19:37;1999.90;;;999.90;;
13250;SDS011;6692;50.710;7.180;2023-05-07T01:21:38;1999.90;;;999.90;;
13250;SDS011;6692;50.710;7.180;2023-05-07T01:23:39;1999.90;;;999.90;;
13250;SDS011;6692;50.710;7.180;2023-05-07T01:25:40;1999.90;;;999.90;;
13250;SDS011;6692;50.710;7.180;2023-05-07T01:27:41;1999.90;;;999.90;;
13250;SDS011;6692;50.710;7.180;2023-05-07T01:29:42;1999.90;;;999.90;;
13250;SDS011;6692;50.710;7.180;2023-05-07T01:31:43;1999.90;;;999.90;;
13250;SDS011;6692;50.710;7.180;2023-05-07T01:33:43;1999.90;;;999.90;;
13250;SDS011;6692;50.710;7.180;2023-05-07T01:35:45;1999.90;;;999.90;;
13250;SDS011;6692;50.710;7.180;2023-05-07T01:37:46;1999.90;;;999.90;;
13250;SDS011;6692;50.710;7.180;2023-05-07T01:39:46;1999.90;;;999.90;;
13250;SDS011;6692;50.710;7.180;2023-05-07T01:41:47;1999.90;;;999.90;;
13250;SDS011;6692;50.710;7.180;2023-05-07T01:43:48;1999.90;;;999.90;;
13250;SDS011;6692;50.710;7.180;2023-05-07T01:45:48;1999.90;;;999.90;;
13250;SDS011;6692;50.710;7.180;2023-05-07T01:47:49;1999.90;;;999.90;;
13250;SDS011;6692;50.710;7.180;2023-05-07T01:49:49;1999.90;;;999.90;;
13250;SDS011;6692;50.710;7.180;2023-05-07T01:51:50;1999.90;;;999.90;;
13250;SDS011;6692;50.710;7.180;2023-05-07T01:53:51;1999.90;;;999.90;;
13250;SDS011;6692;50.710;7.180;2023-05-07T01:55:51;1999.90;;;999.90;;
13250;SDS011;6692;50.710;7.180;2023-05-07T01:57:52;1999.90;;;999.90;;
13250;SDS011;6692;50.710;7.180;2023-05-07T01:59:53;1999.90;;;999.90;;
13250;SDS011;6692;50.710;7.180;2023-05-07T02:01:53;1999.90;;;999.90;;
13250;SDS011;6692;50.710;7.180;2023-05-07T02:03:54;1999.90;;;999.90;;
13250;SDS011;6692;50.710;7.180;2023-05-07T02:05:55;1999.90;;;999.90;;
13250;SDS011;6692;50.710;7.180;2023-05-07T02:07:55;1999.90;;;999.90;;
13250;SDS011;6692;50.710;7.180;2023-05-07T02:09:56;1999.90;;;999.90;;
13250;SDS011;6692;50.710;7.180;2023-05-07T02:11:57;1999.90;;;999.90;;
13250;SDS011;6692;50.710;7.180;2023-05-07T02:13:57;1999.90;;;999.90;;
13250;SDS011;6692;50.710;7.180;2023-05-07T02:15:58;1999.90;;;999.90;;
13250;SDS011;6692;50.710;7.180;2023-05-07T02:17:59;1999.90;;;999.90;;
13250;SDS011;6692;50.710;7.180;2023-05-07T02:20:01;1999.90;;;999.90;;
13250;SDS011;6692;50.710;7.180;2023-05-07T02:22:02;1999.90;;;999.90;;
13250;SDS011;6692;50.710;7.180;2023-05-07T02:24:03;1999.90;;;999.90;;
13250;SDS011;6692;50.710;7.180;2023-05-07T02:26:04;1999.90;;;999.90;;
13250;SDS011;6692;50.710;7.180;2023-05-07T02:28:05;1999.90;;;999.90;;
13250;SDS011;6692;50.710;7.180;2023-05-07T02:30:06;1999.90;;;999.90;;
13250;SDS011;6692;50.710;7.180;2023-05-07T02:32:07;1999.90;;;999.90;;
13250;SDS011;6692;50.710;7.180;2023-05-07T02:34:08;1999.90;;;999.90;;
13250;SDS011;6692;50.710;7.180;2023-05-07T02:36:09;1999.90;;;999.90;;
13250;SDS011;6692;50.710;7.180;2023-05-07T02:38:09;1999.90;;;999.90;;
13250;SDS011;6692;50.710;7.180;2023-05-07T02:40:11;1999.90;;;999.90;;
13250;SDS011;6692;50.710;7.180;2023-05-07T02:42:12;1999.90;;;999.90;;
13250;SDS011;6692;50.710;7.180;2023-05-07T02:44:12;1999.90;;;999.90;;
13250;SDS011;6692;50.710;7.180;2023-05-07T02:46:13;1999.90;;;999.90;;
13250;SDS011;6692;50.710;7.180;2023-05-07T02:48:14;1999.90;;;999.90;;
13250;SDS011;6692;50.710;7.180;2023-05-07T02:50:14;1999.90;;;999.90;;
13250;SDS011;6692;50.710;7.180;2023-05-07T02:52:15;1999.90;;;999.90;;
13250;SDS011;6692;50.710;7.180;2023-05-07T02:54:16;1999.90;;;999.90;;
13250;SDS011;6692;50.710;7.180;2023-05-07T02:56:17;1999.90;;;999.90;;
13250;SDS011;6692;50.710;7.180;2023-05-07T02:58:18;1999.90;;;999.90;;
13250;SDS011;6692;50.710;7.180;2023-05-07T03:00:19;1999.90;;;999.90;;
13250;SDS011;6692;50.710;7.180;2023-05-07T03:02:20;1999.90;;;999.90;;
13250;SDS011;6692;50.710;7.180;2023-05-07T03:04:22;1999.90;;;999.90;;
13250;SDS011;6692;50.710;7.180;2023-05-07T03:06:22;1999.90;;;999.90;;
13250;SDS011;6692;50.710;7.180;2023-05-07T03:08:24;1999.90;;;999.90;;
13250;SDS011;6692;50.710;7.180;2023-05-07T03:10:25;1999.90;;;999.90;;
13250;SDS011;6692;50.710;7.180;2023-05-07T03:12:25;1999.90;;;999.90;;
13250;SDS011;6692;50.710;7.180;2023-05-07T03:14:26;1999.90;;;999.90;;
13250;SDS011;6692;50.710;7.180;2023-05-07T03:16:27;1999.90;;;999.90;;
13250;SDS011;6692;50.710;7.180;2023-05-07T03:18:27;1999.90;;;999.90;;
13250;SDS011;6692;50.710;7.180;2023-05-07T03:20:28;1999.90;;;999.90;;
13250;SDS011;6692;50.710;7.180;2023-05-07T03:22:29;1999.90;;;999.90;;
13250;SDS011;6692;50.710;7.180;2023-05-07T03:24:30;1999.90;;;999.90;;
13250;SDS011;6692;50.710;7.180;2023-05-07T03:26:30;1999.90;;;999.90;;
13250;SDS011;6692;50.710;7.180;2023-05-07T03:28:31;1999.90;;;999.90;;
13250;SDS011;6692;50.710;7.180;2023-05-07T03:30:32;1999.90;;;999.90;;
13250;SDS011;6692;50.710;7.180;2023-05-07T03:32:33;1999.90;;;999.90;;
13250;SDS011;6692;50.710;7.180;2023-05-07T03:34:33;1999.90;;;999.90;;
13250;SDS011;6692;50.710;7.180;2023-05-07T03:36:35;1999.90;;;999.90;;
13250;SDS011;6692;50.710;7.180;2023-05-07T03:38:35;1999.90;;;999.90;;
13250;SDS011;6692;50.710;7.180;2023-05-07T03:40:36;1999.90;;;999.90;;
13250;SDS011;6692;50.710;7.180;2023-05-07T03:42:37;1999.90;;;999.90;;
13250;SDS011;6692;50.710;7.180;2023-05-07T03:44:37;1999.90;;;999.90;;
13250;SDS011;6692;50.710;7.180;2023-05-07T03:46:39;1999.90;;;999.90;;
13250;SDS011;6692;50.710;7.180;2023-05-07T03:48:40;1999.90;;;999.90;;
13250;SDS011;6692;50.710;7.180;2023-05-07T03:50:40;1999.90;;;999.90;;
13250;SDS011;6692;50.710;7.180;2023-05-07T03:52:41;1999.90;;;999.90;;
13250;SDS011;6692;50.710;7.180;2023-05-07T03:54:42;1999.90;;;999.90;;
13250;SDS011;6692;50.710;7.180;2023-05-07T03:56:42;1999.90;;;999.90;;
13250;SDS011;6692;50.710;7.180;2023-05-07T03:58:43;1999.90;;;999.90;;
13250;SDS011;6692;50.710;7.180;2023-05-07T04:00:44;1999.90;;;999.90;;
13250;SDS011;6692;50.710;7.180;2023-05-07T04:02:45;1999.90;;;999.90;;
13250;SDS011;6692;50.710;7.180;2023-05-07T04:04:47;1999.90;;;999.90;;
13250;SDS011;6692;50.710;7.180;2023-05-07T04:06:46;1999.90;;;999.90;;
13250;SDS011;6692;50.710;7.180;2023-05-07T04:08:47;1999.90;;;999.90;;
13250;SDS011;6692;50.710;7.180;2023-05-07T04:10:48;1999.90;;;999.90;;
13250;SDS011;6692;50.710;7.180;2023-05-07T04:12:48;1999.90;;;999.90;;
13250;SDS011;6692;50.710;7.180;2023-05-07T04:14:49;1999.90;;;999.90;;
13250;SDS011;6692;50.710;7.180;2023-05-07T04:16:50;1999.90;;;999.90;;
13250;SDS011;6692;50.710;7.180;2023-05-07T04:18:50;1999.90;;;999.90;;
13250;SDS011;6692;50.710;7.180;2023-05-07T04:20:51;1999.90;;;999.90;;
13250;SDS011;6692;50.710;7.180;2023-05-07T04:22:52;1999.90;;;999.90;;
13250;SDS011;6692;50.710;7.180;2023-05-07T04:24:52;1999.90;;;999.90;;
13250;SDS011;6692;50.710;7.180;2023-05-07T04:26:53;1999.90;;;999.90;;
13250;SDS011;6692;50.710;7.180;2023-05-07T04:28:53;1999.90;;;999.90;;
13250;SDS011;6692;50.710;7.180;2023-05-07T04:30:54;1999.90;;;999.90;;
13250;SDS011;6692;50.710;7.180;2023-05-07T04:32:55;1999.90;;;999.90;;
13250;SDS011;6692;50.710;7.180;2023-05-07T04:34:56;1999.90;;;999.90;;
13250;SDS011;6692;50.710;7.180;2023-05-07T04:36:58;1999.90;;;999.90;;
13250;SDS011;6692;50.710;7.180;2023-05-07T04:38:57;1999.90;;;999.90;;
13250;SDS011;6692;50.710;7.180;2023-05-07T04:41:06;1999.90;;;999.90;;
13250;SDS011;6692;50.710;7.180;2023-05-07T04:43:07;1999.90;;;999.90;;
13250;SDS011;6692;50.710;7.180;2023-05-07T04:45:08;1999.90;;;999.90;;
13250;SDS011;6692;50.710;7.180;2023-05-07T04:47:09;1999.90;;;999.90;;
13250;SDS011;6692;50.710;7.180;2023-05-07T04:49:10;1999.90;;;999.90;;
13250;SDS011;6692;50.710;7.180;2023-05-07T04:51:11;1999.90;;;999.90;;
13250;SDS011;6692;50.710;7.180;2023-05-07T04:53:12;1999.90;;;999.90;;
13250;SDS011;6692;50.710;7.180;2023-05-07T04:55:13;1999.90;;;999.90;;
13250;SDS011;6692;50.710;7.180;2023-05-07T04:57:14;1999.90;;;999.90;;
13250;SDS011;6692;50.710;7.180;2023-05-07T04:59:15;1999.90;;;999.90;;
13250;SDS011;6692;50.710;7.180;2023-05-07T05:01:15;1999.90;;;999.90;;
13250;SDS011;6692;50.710;7.180;2023-05-07T05:03:16;1999.90;;;999.90;;
13250;SDS011;6692;50.710;7.180;2023-05-07T05:05:17;1999.90;;;999.90;;
13250;SDS011;6692;50.710;7.180;2023-05-07T05:07:18;1999.90;;;999.90;;
13250;SDS011;6692;50.710;7.180;2023-05-07T05:09:18;1999.90;;;999.90;;
13250;SDS011;6692;50.710;7.180;2023-05-07T05:11:19;1999.90;;;999.90;;
13250;SDS011;6692;50.710;7.180;2023-05-07T05:13:19;1999.90;;;999.90;;
13250;SDS011;6692;50.710;7.180;2023-05-07T05:15:20;1999.90;;;999.90;;
13250;SDS011;6692;50.710;7.180;2023-05-07T05:17:21;1999.90;;;999.90;;
13250;SDS011;6692;50.710;7.180;2023-05-07T05:19:23;1999.90;;;999.90;;
13250;SDS011;6692;50.710;7.180;2023-05-07T05:21:23;1999.90;;;999.90;;
13250;SDS011;6692;50.710;7.180;2023-05-07T05:23:24;1410.13;;;740.73;;
13250;SDS011;6692;50.710;7.180;2023-05-07T05:25:24;1410.50;;;741.13;;
13250;SDS011;6692;50.710;7.180;2023-05-07T05:27:25;1407.53;;;738.23;;
13250;SDS011;6692;50.710;7.180;2023-05-07T05:29:26;1402.83;;;733.70;;
13250;SDS011;6692;50.710;7.180;2023-05-07T05:31:26;1400.03;;;730.97;;
13250;SDS011;6692;50.710;7.180;2023-05-07T05:33:27;1399.00;;;729.97;;
13250;SDS011;6692;50.710;7.180;2023-05-07T05:35:29;1398.07;;;729.07;;
13250;SDS011;6692;50.710;7.180;2023-05-07T05:37:28;1400.57;;;731.50;;
13250;SDS011;6692;50.710;7.180;2023-05-07T05:39:31;200.80;;;193.63;;
13250;SDS011;6692;50.710;7.180;2023-05-07T05:41:31;192.30;;;185.43;;
13250;SDS011;6692;50.710;7.180;2023-05-07T05:43:33;189.57;;;182.73;;
13250;SDS011;6692;50.710;7.180;2023-05-07T05:45:33;196.07;;;189.10;;
13250;SDS011;6692;50.710;7.180;2023-05-07T05:47:35;207.30;;;199.97;;
13250;SDS011;6692;50.710;7.180;2023-05-07T05:49:36;199.13;;;191.93;;
13250;SDS011;6692;50.710;7.180;2023-05-07T05:51:37;199.30;;;192.27;;
13250;SDS011;6692;50.710;7.180;2023-05-07T05:53:38;202.03;;;194.90;;
13250;SDS011;6692;50.710;7.180;2023-05-07T05:55:39;196.47;;;189.53;;
13250;SDS011;6692;50.710;7.180;2023-05-07T05:57:40;194.13;;;187.20;;
13250;SDS011;6692;50.710;7.180;2023-05-07T05:59:40;193.43;;;186.50;;
13250;SDS011;6692;50.710;7.180;2023-05-07T06:01:41;190.27;;;183.47;;
13250;SDS011;6692;50.710;7.180;2023-05-07T06:03:42;198.23;;;191.13;;
13250;SDS011;6692;50.710;7.180;2023-05-07T06:05:42;189.60;;;182.80;;
13250;SDS011;6692;50.710;7.180;2023-05-07T06:07:43;164.50;;;158.40;;
13250;SDS011;6692;50.710;7.180;2023-05-07T06:09:44;182.63;;;176.00;;
13250;SDS011;6692;50.710;7.180;2023-05-07T06:11:44;203.67;;;196.37;;
13250;SDS011;6692;50.710;7.180;2023-05-07T06:13:45;207.30;;;199.83;;
13250;SDS011;6692;50.710;7.180;2023-05-07T06:15:47;216.00;;;208.27;;
13250;SDS011;6692;50.710;7.180;2023-05-07T06:17:47;196.30;;;189.10;;
13250;SDS011;6692;50.710;7.180;2023-05-07T06:19:48;210.97;;;203.40;;
13250;SDS011;6692;50.710;7.180;2023-05-07T06:21:49;216.57;;;208.90;;
13250;SDS011;6692;50.710;7.180;2023-05-07T06:23:50;213.80;;;206.10;;
13250;SDS011;6692;50.710;7.180;2023-05-07T06:25:51;198.03;;;190.80;;
13250;SDS011;6692;50.710;7.180;2023-05-07T06:27:51;176.63;;;170.00;;
13250;SDS011;6692;50.710;7.180;2023-05-07T06:29:52;206.97;;;199.50;;
13250;SDS011;6692;50.710;7.180;2023-05-07T06:31:53;203.70;;;196.30;;
13250;SDS011;6692;50.710;7.180;2023-05-07T06:33:54;219.73;;;211.93;;
13250;SDS011;6692;50.710;7.180;2023-05-07T06:35:55;222.30;;;214.40;;
13250;SDS011;6692;50.710;7.180;2023-05-07T06:37:55;207.57;;;200.10;;
13250;SDS011;6692;50.710;7.180;2023-05-07T06:39:56;244.37;;;235.77;;
13250;SDS011;6692;50.710;7.180;2023-05-07T06:41:57;243.13;;;234.67;;
13250;SDS011;6692;50.710;7.180;2023-05-07T06:43:57;250.10;;;241.13;;
13250;SDS011;6692;50.710;7.180;2023-05-07T06:45:58;238.60;;;230.17;;
13250;SDS011;6692;50.710;7.180;2023-05-07T06:47:59;249.80;;;241.00;;
13250;SDS011;6692;50.710;7.180;2023-05-07T06:49:59;257.50;;;248.47;;
13250;SDS011;6692;50.710;7.180;2023-05-07T06:52:00;259.37;;;250.33;;
13250;SDS011;6692;50.710;7.180;2023-05-07T06:54:01;249.27;;;240.57;;
13250;SDS011;6692;50.710;7.180;2023-05-07T06:56:01;261.80;;;252.70;;
13250;SDS011;6692;50.710;7.180;2023-05-07T06:58:02;237.03;;;228.47;;
13250;SDS011;6692;50.710;7.180;2023-05-07T07:00:03;232.50;;;224.17;;
13250;SDS011;6692;50.710;7.180;2023-05-07T07:02:06;227.00;;;218.90;;
13250;SDS011;6692;50.710;7.180;2023-05-07T07:04:07;244.47;;;235.77;;
13250;SDS011;6692;50.710;7.180;2023-05-07T07:06:08;261.47;;;252.40;;
13250;SDS011;6692;50.710;7.180;2023-05-07T07:08:09;245.30;;;236.60;;
13250;SDS011;6692;50.710;7.180;2023-05-07T07:10:10;283.57;;;273.57;;
13250;SDS011;6692;50.710;7.180;2023-05-07T07:12:11;275.13;;;265.63;;
13250;SDS011;6692;50.710;7.180;2023-05-07T07:14:13;269.60;;;260.17;;
13250;SDS011;6692;50.710;7.180;2023-05-07T07:16:13;284.37;;;274.50;;
13250;SDS011;6692;50.710;7.180;2023-05-07T07:18:14;283.57;;;273.83;;
13250;SDS011;6692;50.710;7.180;2023-05-07T07:20:15;283.20;;;273.40;;
13250;SDS011;6692;50.710;7.180;2023-05-07T07:22:16;283.70;;;273.90;;
13250;SDS011;6692;50.710;7.180;2023-05-07T07:24:16;288.50;;;278.57;;
13250;SDS011;6692;50.710;7.180;2023-05-07T07:26:17;295.20;;;285.03;;
13250;SDS011;6692;50.710;7.180;2023-05-07T07:28:17;288.40;;;278.47;;
13250;SDS011;6692;50.710;7.180;2023-05-07T07:30:19;287.77;;;277.83;;
13250;SDS011;6692;50.710;7.180;2023-05-07T07:32:19;280.77;;;271.03;;
13250;SDS011;6692;50.710;7.180;2023-05-07T07:34:20;285.13;;;275.33;;
13250;SDS011;6692;50.710;7.180;2023-05-07T07:36:20;287.53;;;277.67;;
13250;SDS011;6692;50.710;7.180;2023-05-07T07:38:21;275.93;;;266.37;;
13250;SDS011;6692;50.710;7.180;2023-05-07T07:40:22;287.47;;;277.40;;
13250;SDS011;6692;50.710;7.180;2023-05-07T07:42:23;275.90;;;266.30;;
13250;SDS011;6692;50.710;7.180;2023-05-07T07:44:23;303.93;;;293.27;;
13250;SDS011;6692;50.710;7.180;2023-05-07T07:46:24;295.80;;;285.40;;
13250;SDS011;6692;50.710;7.180;2023-05-07T07:48:25;283.33;;;273.43;;
13250;SDS011;6692;50.710;7.180;2023-05-07T07:50:25;278.50;;;268.63;;
13250;SDS011;6692;50.710;7.180;2023-05-07T07:52:26;295.67;;;285.17;;
13250;SDS011;6692;50.710;7.180;2023-05-07T07:54:27;305.17;;;294.33;;
13250;SDS011;6692;50.710;7.180;2023-05-07T07:56:27;290.50;;;280.03;;
13250;SDS011;6692;50.710;7.180;2023-05-07T07:58:28;323.27;;;311.87;;
13250;SDS011;6692;50.710;7.180;2023-05-07T08:00:29;308.63;;;297.70;;
13250;SDS011;6692;50.710;7.180;2023-05-07T08:02:29;312.83;;;301.53;;
13250;SDS011;6692;50.710;7.180;2023-05-07T08:04:30;333.17;;;321.30;;
13250;SDS011;6692;50.710;7.180;2023-05-07T08:06:31;327.43;;;315.90;;
13250;SDS011;6692;50.710;7.180;2023-05-07T08:08:32;333.30;;;321.53;;
13250;SDS011;6692;50.710;7.180;2023-05-07T08:10:33;326.83;;;315.30;;
13250;SDS011;6692;50.710;7.180;2023-05-07T08:12:34;339.33;;;327.13;;
13250;SDS011;6692;50.710;7.180;2023-05-07T08:14:36;363.77;;;350.67;;
13250;SDS011;6692;50.710;7.180;2023-05-07T08:16:36;364.40;;;351.23;;
13250;SDS011;6692;50.710;7.180;2023-05-07T08:18:37;366.10;;;352.97;;
13250;SDS011;6692;50.710;7.180;2023-05-07T08:20:38;365.77;;;352.63;;
13250;SDS011;6692;50.710;7.180;2023-05-07T08:22:39;406.27;;;391.33;;
13250;SDS011;6692;50.710;7.180;2023-05-07T08:24:40;383.07;;;369.27;;
13250;SDS011;6692;50.710;7.180;2023-05-07T08:26:41;372.17;;;358.70;;
13250;SDS011;6692;50.710;7.180;2023-05-07T08:28:41;369.60;;;356.37;;
13250;SDS011;6692;50.710;7.180;2023-05-07T08:30:42;419.37;;;403.93;;
13250;SDS011;6692;50.710;7.180;2023-05-07T08:32:42;406.33;;;391.37;;
13250;SDS011;6692;50.710;7.180;2023-05-07T08:34:44;413.77;;;398.47;;
13250;SDS011;6692;50.710;7.180;2023-05-07T08:36:44;509.73;;;489.83;;
13250;SDS011;6692;50.710;7.180;2023-05-07T08:38:45;495.93;;;476.63;;
13250;SDS011;6692;50.710;7.180;2023-05-07T08:40:46;505.70;;;486.27;;
13250;SDS011;6692;50.710;7.180;2023-05-07T08:42:48;501.03;;;481.47;;
13250;SDS011;6692;50.710;7.180;2023-05-07T08:44:48;545.53;;;523.53;;
13250;SDS011;6692;50.710;7.180;2023-05-07T08:46:48;553.80;;;531.03;;
13250;SDS011;6692;50.710;7.180;2023-05-07T08:48:50;551.13;;;528.93;;
13250;SDS011;6692;50.710;7.180;2023-05-07T08:50:50;542.87;;;521.03;;
13250;SDS011;6692;50.710;7.180;2023-05-07T08:52:50;531.80;;;510.40;;
13250;SDS011;6692;50.710;7.180;2023-05-07T08:54:51;562.67;;;539.80;;
13250;SDS011;6692;50.710;7.180;2023-05-07T08:56:52;575.80;;;552.07;;
13250;SDS011;6692;50.710;7.180;2023-05-07T08:58:52;624.67;;;597.77;;
13250;SDS011;6692;50.710;7.180;2023-05-07T09:00:53;635.20;;;607.57;;
13250;SDS011;6692;50.710;7.180;2023-05-07T09:02:55;632.17;;;604.10;;
13250;SDS011;6692;50.710;7.180;2023-05-07T09:04:55;633.20;;;605.67;;
13250;SDS011;6692;50.710;7.180;2023-05-07T09:06:56;638.97;;;611.00;;
13250;SDS011;6692;50.710;7.180;2023-05-07T09:08:56;636.83;;;609.07;;
13250;SDS011;6692;50.710;7.180;2023-05-07T09:10:57;632.03;;;604.43;;
13250;SDS011;6692;50.710;7.180;2023-05-07T09:12:58;641.23;;;613.40;;
13250;SDS011;6692;50.710;7.180;2023-05-07T09:14:59;631.53;;;604.10;;
13250;SDS011;6692;50.710;7.180;2023-05-07T09:17:00;647.73;;;619.17;;
13250;SDS011;6692;50.710;7.180;2023-05-07T09:19:01;645.83;;;617.67;;
13250;SDS011;6692;50.710;7.180;2023-05-07T09:21:01;644.73;;;616.67;;
13250;SDS011;6692;50.710;7.180;2023-05-07T09:23:02;665.87;;;636.20;;
13250;SDS011;6692;50.710;7.180;2023-05-07T09:25:03;624.20;;;596.80;;
13250;SDS011;6692;50.710;7.180;2023-05-07T09:27:05;583.27;;;558.10;;
13250;SDS011;6692;50.710;7.180;2023-05-07T09:29:05;552.00;;;528.50;;
13250;SDS011;6692;50.710;7.180;2023-05-07T09:31:06;587.63;;;562.27;;
13250;SDS011;6692;50.710;7.180;2023-05-07T09:33:06;470.63;;;451.47;;
13250;SDS011;6692;50.710;7.180;2023-05-07T09:35:14;441.27;;;423.27;;
13250;SDS011;6692;50.710;7.180;2023-05-07T09:37:08;535.27;;;512.70;;
13250;SDS011;6692;50.710;7.180;2023-05-07T09:39:09;573.30;;;548.90;;
13250;SDS011;6692;50.710;7.180;2023-05-07T09:41:10;587.80;;;562.67;;
13250;SDS011;6692;50.710;7.180;2023-05-07T09:43:10;497.17;;;476.77;;
13250;SDS011;6692;50.710;7.180;2023-05-07T09:45:11;554.30;;;531.10;;
13250;SDS011;6692;50.710;7.180;2023-05-07T09:47:12;479.30;;;460.07;;
13250;SDS011;6692;50.710;7.180;2023-05-07T09:49:18;426.00;;;409.00;;
13250;SDS011;6692;50.710;7.180;2023-05-07T09:51:22;475.23;;;456.33;;
13250;SDS011;6692;50.710;7.180;2023-05-07T09:53:22;415.60;;;399.30;;
13250;SDS011;6692;50.710;7.180;2023-05-07T09:55:23;449.57;;;431.57;;
13250;SDS011;6692;50.710;7.180;2023-05-07T09:57:24;434.40;;;417.37;;
13250;SDS011;6692;50.710;7.180;2023-05-07T09:59:24;491.60;;;471.60;;
13250;SDS011;6692;50.710;7.180;2023-05-07T10:01:26;432.53;;;415.47;;
13250;SDS011;6692;50.710;7.180;2023-05-07T10:03:26;394.17;;;378.80;;
13250;SDS011;6692;50.710;7.180;2023-05-07T10:05:27;463.50;;;444.80;;
13250;SDS011;6692;50.710;7.180;2023-05-07T10:07:28;444.23;;;426.37;;
13250;SDS011;6692;50.710;7.180;2023-05-07T10:09:28;496.07;;;475.90;;
13250;SDS011;6692;50.710;7.180;2023-05-07T10:11:29;433.50;;;415.77;;
13250;SDS011;6692;50.710;7.180;2023-05-07T10:13:30;419.47;;;402.40;;
13250;SDS011;6692;50.710;7.180;2023-05-07T10:15:31;452.10;;;433.67;;
13250;SDS011;6692;50.710;7.180;2023-05-07T10:17:33;449.37;;;431.13;;
13250;SDS011;6692;50.710;7.180;2023-05-07T10:19:33;468.47;;;449.70;;
13250;SDS011;6692;50.710;7.180;2023-05-07T10:21:35;474.17;;;455.30;;
13250;SDS011;6692;50.710;7.180;2023-05-07T10:23:34;475.30;;;456.20;;
13250;SDS011;6692;50.710;7.180;2023-05-07T10:25:35;501.27;;;481.03;;
13250;SDS011;6692;50.710;7.180;2023-05-07T10:27:35;506.70;;;486.37;;
13250;SDS011;6692;50.710;7.180;2023-05-07T10:29:39;463.73;;;445.23;;
13250;SDS011;6692;50.710;7.180;2023-05-07T10:33:51;458.27;;;440.07;;
13250;SDS011;6692;50.710;7.180;2023-05-07T10:35:51;468.67;;;449.83;;
13250;SDS011;6692;50.710;7.180;2023-05-07T10:37:52;477.83;;;458.67;;
13250;SDS011;6692;50.710;7.180;2023-05-07T10:39:52;471.80;;;453.03;;
13250;SDS011;6692;50.710;7.180;2023-05-07T10:41:53;441.40;;;424.00;;
13250;SDS011;6692;50.710;7.180;2023-05-07T10:43:54;940.67;;;883.50;;
13250;SDS011;6692;50.710;7.180;2023-05-07T10:48:10;868.30;;;817.97;;
13250;SDS011;6692;50.710;7.180;2023-05-07T10:52:27;735.30;;;698.40;;
13250;SDS011;6692;50.710;7.180;2023-05-07T10:54:28;989.23;;;925.23;;
13250;SDS011;6692;50.710;7.180;2023-05-07T10:56:29;943.77;;;886.17;;
13250;SDS011;6692;50.710;7.180;2023-05-07T10:58:29;963.77;;;902.83;;
13250;SDS011;6692;50.710;7.180;2023-05-07T11:00:41;801.07;;;757.30;;
13250;SDS011;6692;50.710;7.180;2023-05-07T11:07:17;659.47;;;627.43;;
13250;SDS011;6692;50.710;7.180;2023-05-07T11:09:18;646.20;;;615.53;;
13250;SDS011;6692;50.710;7.180;2023-05-07T11:11:19;608.07;;;580.43;;
13250;SDS011;6692;50.710;7.180;2023-05-07T11:15:34;810.90;;;766.87;;
13250;SDS011;6692;50.710;7.180;2023-05-07T11:17:35;672.77;;;640.57;;
13250;SDS011;6692;50.710;7.180;2023-05-07T11:21:48;625.50;;;596.60;;
13250;SDS011;6692;50.710;7.180;2023-05-07T11:23:56;588.23;;;562.30;;
13250;SDS011;6692;50.710;7.180;2023-05-07T11:25:59;603.03;;;575.73;;
13250;SDS011;6692;50.710;7.180;2023-05-07T11:28:04;577.30;;;552.07;;
13250;SDS011;6692;50.710;7.180;2023-05-07T11:30:04;760.53;;;720.23;;
13250;SDS011;6692;50.710;7.180;2023-05-07T11:32:06;604.63;;;577.53;;
13250;SDS011;6692;50.710;7.180;2023-05-07T11:34:07;598.70;;;572.23;;
13250;SDS011;6692;50.710;7.180;2023-05-07T11:36:07;626.60;;;597.77;;
13250;SDS011;6692;50.710;7.180;2023-05-07T11:38:08;593.00;;;566.83;;
13250;SDS011;6692;50.710;7.180;2023-05-07T11:40:09;567.93;;;543.20;;
13250;SDS011;6692;50.710;7.180;2023-05-07T11:44:24;576.90;;;551.83;;
13250;SDS011;6692;50.710;7.180;2023-05-07T11:46:26;577.03;;;551.87;;
13250;SDS011;6692;50.710;7.180;2023-05-07T11:48:25;574.43;;;549.53;;
13250;SDS011;6692;50.710;7.180;2023-05-07T11:50:26;575.80;;;551.17;;